ADDS METAR Data INFO
IDs: Format: Raw Decoded Include TAF

Data at: 0145 UTC 18 Oct 2017

KASH 180056Z 00000KT 10SM CLR 08/01 A3023 RMK AO2 SLP247 T00830011
KASH 172356Z 00000KT 10SM CLR 08/02 A3022 RMK AO2 SLP244 T00780017 10144 20072 53006
KASH 172256Z 00000KT 10SM CLR 08/03 A3020 RMK AO2 SLP240 T00780028
KASH 172156Z 00000KT 10SM CLR 10/02 A3019 RMK AO2 SLP236 T01000017
KASH 172056Z 28003KT 10SM CLR 13/M02 A3020 RMK AO2 SLP238 T01331017 56014
KASH 171956Z VRB04KT 10SM CLR 14/M01 A3020 RMK AO2 SLP239 T01391006
KASH 171856Z 28005KT 10SM CLR 13/M01 A3022 RMK AO2 SLP245 T01331011
KASH 171756Z 26005KT 10SM CLR 13/M01 A3024 RMK AO2 SLP252 T01281006 10128 20017 58018
KASH 171656Z VRB05KT 10SM CLR 12/M02 A3027 RMK AO2 SLP261 T01171017
KASH 171556Z 32006KT 10SM CLR 10/M02 A3029 RMK AO2 SLP270 T01001017
KASH 171456Z VRB05KT 10SM CLR 08/M02 A3029 RMK AO2 SLP271 T00831022 58002
KASH 171356Z 32008KT 10SM CLR 08/M02 A3030 RMK AO2 SLP274 T00781017
KASH 171256Z 30008KT 10SM CLR 06/00 A3031 RMK AO2 SLP277 T00560000
KASH 171156Z 30006KT 10SM CLR 02/00 A3030 RMK AO2 SLP272 T00170000 10022 20000 53020
KASH 171056Z 30005KT 10SM CLR 01/00 A3028 RMK AO2 SLP264 T00110000
KASH 170956Z AUTO 31006KT 10SM CLR 01/M01 A3026 RMK AO2 SLP258 T00061006
KASH 170756Z AUTO 29003KT 10SM CLR 02/00 A3022 RMK AO2 SLP245 T00220000
KASH 170656Z AUTO 30004KT 10SM CLR 02/M01 A3021 RMK AO2 SLP242 T00171006
KASH 170556Z AUTO 29004KT 10SM CLR 02/01 A3019 RMK AO2 SLP236 T00220006 10078 20022 53007
KASH 170456Z AUTO 00000KT 10SM CLR 03/01 A3018 RMK AO2 SLP233 T00330006
KASH 170356Z AUTO 30005KT 10SM CLR 04/01 A3017 RMK AO2 SLP230 T00390006 402110033
KASH 170256Z AUTO 30004KT 10SM CLR 05/01 A3017 RMK AO2 SLP229 T00500006 51022
KASH 170156Z AUTO 31006KT 10SM CLR 06/01 A3016 RMK AO2 SLP224 T00560006
KASH 170056Z 32007KT 10SM CLR 07/01 A3013 RMK AO2 SLP216 T00720011
KASH 162356Z 34008KT 10SM CLR 08/02 A3011 RMK AO2 SLP207 T00780017 10122 20078 53028
KASH 162256Z 34011G16KT 10SM CLR 09/02 A3007 RMK AO2 SLP195 T00890017
KASH 162156Z 32016G20KT 10SM FEW035 10/02 A3005 RMK AO2 SLP186 T01000017
KASH 162056Z 32015KT 10SM FEW035 11/02 A3002 RMK AO2 SLP178 T01060022 53017
KASH 161956Z 34014G19KT 10SM FEW035 12/03 A3000 RMK AO2 SLP168 T01170028
KASH 161856Z 34009G14KT 10SM FEW035 12/04 A2997 RMK AO2 SLP160 T01170039
KASH 161756Z 32011KT 10SM FEW035 12/04 A2997 RMK AO2 SLP160 60000 T01220039 10156 20111 51004
KASH 161656Z 31015G20KT 10SM FEW035 12/03 A2996 RMK AO2 SLP157 T01170033
KASH 161556Z 32013G18KT 10SM FEW035 11/04 A2998 RMK AO2 SLP161 T01110039
KASH 161456Z 33011KT 10SM FEW032 11/04 A2996 RMK AO2 PRESRR SLP155 60000 T01110044 51038
KASH 161356Z 34009G15KT 10SM SCT034 12/06 A2993 RMK AO2 SLP144 T01220056